馬祖南竿航空站 - ATIS

METAR RCFG 231400Z 33011KT 5000 BR SCT006 BKN030 13/10 Q1027 NOSIG RMK 01011KT/R21 MAX WND 18KT/R03 01013KT/NJL A3033(B)=

站台狀態:Online
最後更新:2020-02-24 03:30:02